createdAt,value
2023-03-16T00:00:56.829Z,95227.41
2023-03-16T00:03:24.533Z,95224.06
2023-03-16T00:05:54.319Z,95210.47
2023-03-16T00:08:21.904Z,95198.53
2023-03-16T00:10:49.518Z,95209.91
2023-03-16T00:13:20.005Z,95215.28
2023-03-16T00:15:52.395Z,95205.34
2023-03-16T00:18:20.163Z,95204.72
2023-03-16T00:20:51.772Z,95205.28
2023-03-16T00:23:19.583Z,95206.59
2023-03-16T00:25:47.210Z,95204.66
2023-03-16T00:28:14.837Z,95206.13
2023-03-16T00:30:47.442Z,95206.31
2023-03-16T00:33:15.088Z,95195.78
2023-03-16T00:35:50.728Z,95189.50
2023-03-16T00:38:18.616Z,95194.66
2023-03-16T00:40:46.344Z,95191.59
2023-03-16T00:43:18.577Z,95192.06
2023-03-16T00:45:47.663Z,95193.28
2023-03-16T00:48:16.440Z,95190.03
2023-03-16T00:50:44.208Z,95184.66
2023-03-16T00:53:11.859Z,95189.69
2023-03-16T00:55:39.507Z,95192.28
2023-03-16T00:58:07.157Z,95197.63
2023-03-16T01:00:36.092Z,95198.81
2023-03-16T01:03:05.089Z,95183.94
2023-03-16T01:05:33.721Z,95189.31
2023-03-16T01:08:02.806Z,95180.94
2023-03-16T01:10:30.575Z,95181.72
2023-03-16T01:12:58.274Z,95174.56
2023-03-16T01:15:25.914Z,95178.19
2023-03-16T01:17:54.393Z,95188.53
2023-03-16T01:20:23.890Z,95189.38
2023-03-16T01:22:51.885Z,95184.00
2023-03-16T01:25:20.582Z,95183.84
2023-03-16T01:27:48.483Z,95189.38
2023-03-16T01:30:16.346Z,95176.06
2023-03-16T01:32:44.138Z,95173.72
2023-03-16T01:35:11.914Z,95173.53
2023-03-16T01:37:41.397Z,95167.38
2023-03-16T01:40:12.273Z,95165.22
2023-03-16T01:42:46.806Z,95172.41
2023-03-16T01:45:52.724Z,95170.59
2023-03-16T01:48:22.674Z,95173.63
2023-03-16T01:50:52.306Z,95169.25
2023-03-16T01:53:22.030Z,95178.06
2023-03-16T01:55:50.154Z,95172.03
2023-03-16T01:58:18.652Z,95170.75
2023-03-16T02:00:46.250Z,95168.69
2023-03-16T02:03:16.590Z,95167.50
2023-03-16T02:05:45.829Z,95158.63
2023-03-16T02:08:13.440Z,95162.88
2023-03-16T02:10:42.398Z,95169.41
2023-03-16T02:13:11.178Z,95166.75
2023-03-16T02:15:39.024Z,95166.28
2023-03-16T02:18:07.842Z,95173.03
2023-03-16T02:20:40.898Z,95168.50
2023-03-16T02:23:18.561Z,95160.28
2023-03-16T02:25:52.688Z,95158.41
2023-03-16T02:28:26.273Z,95156.47
2023-03-16T02:30:55.307Z,95165.66
2023-03-16T02:33:23.708Z,95159.06
2023-03-16T02:35:51.726Z,95158.41
2023-03-16T02:38:19.396Z,95155.56
2023-03-16T02:40:58.159Z,95164.94
2023-03-16T02:43:30.162Z,95166.63
2023-03-16T02:46:00.770Z,95160.06
2023-03-16T02:48:32.731Z,95162.38
2023-03-16T02:51:00.758Z,95162.56
2023-03-16T02:53:28.442Z,95151.72
2023-03-16T02:55:56.183Z,95154.41
2023-03-16T02:58:23.795Z,95149.22
2023-03-16T03:00:51.468Z,95160.81
2023-03-16T03:03:20.472Z,95163.16
2023-03-16T03:05:48.363Z,95165.91
2023-03-16T03:08:16.387Z,95163.94
2023-03-16T03:10:44.046Z,95157.56
2023-03-16T03:13:12.298Z,95159.59
2023-03-16T03:15:40.375Z,95151.91
2023-03-16T03:18:08.977Z,95154.56
2023-03-16T03:20:37.991Z,95157.94
2023-03-16T03:23:05.687Z,95153.41
2023-03-16T03:25:34.846Z,95159.59
2023-03-16T03:28:05.474Z,95163.66
2023-03-16T03:30:33.479Z,95149.97
2023-03-16T03:33:01.526Z,95150.66
2023-03-16T03:35:29.249Z,95150.41
2023-03-16T03:37:58.249Z,95139.03
2023-03-16T03:40:26.420Z,95137.66
2023-03-16T03:42:54.168Z,95146.25
2023-03-16T03:45:21.849Z,95137.72
2023-03-16T03:47:49.499Z,95142.06
2023-03-16T03:50:17.449Z,95140.22
2023-03-16T03:52:45.075Z,95143.75
2023-03-16T03:55:14.300Z,95146.59
2023-03-16T03:57:42.095Z,95141.59
2023-03-16T04:00:11.549Z,95145.13
2023-03-16T04:02:39.519Z,95142.63
2023-03-16T04:05:08.031Z,95133.44
2023-03-16T04:07:35.718Z,95129.41
2023-03-16T04:10:03.376Z,95135.16
2023-03-16T04:12:32.406Z,95127.94
2023-03-16T04:15:00.047Z,95125.44
2023-03-16T04:17:27.717Z,95133.16
2023-03-16T04:19:55.376Z,95144.56
2023-03-16T04:22:23.589Z,95143.25
2023-03-16T04:24:52.251Z,95142.38
2023-03-16T04:27:19.880Z,95145.06
2023-03-16T04:29:48.835Z,95150.41
2023-03-16T04:32:16.475Z,95149.59
2023-03-16T04:34:44.267Z,95152.28
2023-03-16T04:37:12.196Z,95143.59
2023-03-16T04:39:39.948Z,95139.75
2023-03-16T04:42:08.019Z,95139.59
2023-03-16T04:44:43.979Z,95137.59
2023-03-16T04:47:13.665Z,95129.56
2023-03-16T04:49:41.557Z,95125.56
2023-03-16T04:52:09.601Z,95124.72
2023-03-16T04:54:37.283Z,95123.72
2023-03-16T04:57:05.760Z,95119.88
2023-03-16T04:59:33.418Z,95118.69
2023-03-16T05:02:01.037Z,95126.38
2023-03-16T05:04:29.981Z,95119.25
2023-03-16T05:06:57.614Z,95119.25
2023-03-16T05:09:25.857Z,95116.56
2023-03-16T05:11:53.478Z,95111.88
2023-03-16T05:14:21.113Z,95105.69
2023-03-16T05:16:48.746Z,95107.72
2023-03-16T05:19:16.349Z,95108.91
2023-03-16T05:21:46.082Z,95112.22
2023-03-16T05:24:13.693Z,95114.56
2023-03-16T05:26:41.318Z,95106.03
2023-03-16T05:29:11.050Z,95112.88
2023-03-16T05:31:38.720Z,95110.88
2023-03-16T05:34:06.325Z,95108.84
2023-03-16T05:36:35.907Z,95115.88
2023-03-16T05:39:05.082Z,95106.19
2023-03-16T05:41:32.761Z,95106.84
2023-03-16T05:44:00.636Z,95104.47
2023-03-16T05:46:28.250Z,95104.28
2023-03-16T05:48:55.866Z,95091.56
2023-03-16T05:51:26.316Z,95102.78
2023-03-16T05:53:56.667Z,95107.09
2023-03-16T05:56:26.723Z,95097.06
2023-03-16T05:58:54.968Z,95095.06
2023-03-16T06:01:22.824Z,95096.38
2023-03-16T06:03:51.902Z,95103.03
2023-03-16T06:06:20.465Z,95100.66
2023-03-16T06:08:48.086Z,95108.66
2023-03-16T06:11:16.037Z,95104.59
2023-03-16T06:13:45.337Z,95106.75
2023-03-16T06:16:14.373Z,95109.38
2023-03-16T06:18:42.121Z,95106.66
2023-03-16T06:21:09.763Z,95111.09
2023-03-16T06:23:37.368Z,95111.38
2023-03-16T06:26:05.376Z,95108.00
2023-03-16T06:28:32.981Z,95111.44
2023-03-16T06:31:02.006Z,95116.63
2023-03-16T06:33:29.678Z,95117.56
2023-03-16T06:35:57.354Z,95109.44
2023-03-16T06:38:25.064Z,95112.72
2023-03-16T06:40:53.822Z,95111.00
2023-03-16T06:43:21.455Z,95112.91
2023-03-16T06:45:49.154Z,95104.16
2023-03-16T06:48:18.178Z,95107.13
2023-03-16T06:50:46.184Z,95099.00
2023-03-16T06:53:13.936Z,95100.50
2023-03-16T06:55:41.645Z,95101.06
2023-03-16T06:58:09.304Z,95095.59
2023-03-16T07:00:36.939Z,95102.50
2023-03-16T07:03:04.953Z,95100.63
2023-03-16T07:05:34.078Z,95104.63
2023-03-16T07:08:02.198Z,95100.69
2023-03-16T07:10:30.249Z,95095.28
2023-03-16T07:12:58.029Z,95093.84
2023-03-16T07:15:26.602Z,95089.88
2023-03-16T07:17:54.313Z,95094.88
2023-03-16T07:20:23.660Z,95096.72
2023-03-16T07:22:52.907Z,95088.59
2023-03-16T07:25:21.347Z,95083.69
2023-03-16T07:27:49.026Z,95093.66
2023-03-16T07:30:17.011Z,95096.44
2023-03-16T07:32:44.723Z,95090.09
2023-03-16T07:35:12.514Z,95095.16
2023-03-16T07:37:40.136Z,95096.88
2023-03-16T07:40:11.210Z,95100.28
2023-03-16T07:42:38.857Z,95096.22
2023-03-16T07:45:07.830Z,95107.47
2023-03-16T07:47:35.485Z,95109.16
2023-03-16T07:50:03.259Z,95113.97
2023-03-16T07:52:30.881Z,95115.88
2023-03-16T07:54:58.544Z,95116.94
2023-03-16T07:57:27.521Z,95110.97
2023-03-16T07:59:55.192Z,95115.94
2023-03-16T08:02:22.944Z,95125.50
2023-03-16T08:04:51.541Z,95124.91
2023-03-16T08:07:19.269Z,95124.91
2023-03-16T08:09:47.113Z,95119.69
2023-03-16T08:12:14.822Z,95116.75
2023-03-16T08:14:45.712Z,95124.88
2023-03-16T08:17:13.690Z,95120.50
2023-03-16T08:19:43.074Z,95120.88
2023-03-16T08:22:10.703Z,95118.34
2023-03-16T08:24:38.414Z,95122.59
2023-03-16T08:27:06.155Z,95123.38
2023-03-16T08:29:34.811Z,95116.81
2023-03-16T08:32:03.852Z,95116.56
2023-03-16T08:34:31.853Z,95115.84
2023-03-16T08:37:01.114Z,95118.50
2023-03-16T08:39:29.091Z,95117.75
2023-03-16T08:41:57.324Z,95119.16
2023-03-16T08:44:26.117Z,95120.09
2023-03-16T08:46:53.821Z,95123.81
2023-03-16T08:49:23.992Z,95116.22
2023-03-16T08:51:51.806Z,95124.34
2023-03-16T08:54:19.573Z,95122.28
2023-03-16T08:56:47.187Z,95117.09
2023-03-16T08:59:28.817Z,95115.81
2023-03-16T09:01:57.225Z,95119.94
2023-03-16T09:04:26.488Z,95116.88
2023-03-16T09:07:09.998Z,95115.81
2023-03-16T09:09:37.834Z,95111.31
2023-03-16T09:12:06.520Z,95115.59
2023-03-16T09:14:34.362Z,95118.06
2023-03-16T09:17:01.970Z,95112.00
2023-03-16T09:19:47.868Z,95103.16
2023-03-16T09:22:18.515Z,95108.41
2023-03-16T09:24:46.236Z,95108.41
2023-03-16T09:27:13.915Z,95113.53
2023-03-16T09:29:42.605Z,95113.38
2023-03-16T09:32:11.087Z,95116.31
2023-03-16T09:34:40.220Z,95107.16
2023-03-16T09:37:08.236Z,95108.91
2023-03-16T09:39:37.107Z,95105.88
2023-03-16T09:42:13.887Z,95105.69
2023-03-16T09:44:45.302Z,95108.03
2023-03-16T09:47:13.544Z,95112.53
2023-03-16T09:49:45.430Z,95100.63
2023-03-16T09:52:21.678Z,95107.47
2023-03-16T09:54:52.522Z,95106.72
2023-03-16T09:57:26.560Z,95107.16
2023-03-16T09:59:54.955Z,95109.47
2023-03-16T10:02:39.682Z,95111.56
2023-03-16T10:05:10.556Z,95104.06
2023-03-16T10:07:44.281Z,95094.59
2023-03-16T10:10:22.202Z,95096.78
2023-03-16T10:12:52.603Z,95097.19
2023-03-16T10:15:21.969Z,95097.03
2023-03-16T10:17:53.779Z,95099.19
2023-03-16T10:20:24.439Z,95089.06
2023-03-16T10:22:53.607Z,95090.88
2023-03-16T10:25:24.103Z,95097.50
2023-03-16T10:27:52.007Z,95088.00
2023-03-16T10:30:23.443Z,95088.34
2023-03-16T10:32:51.476Z,95074.81
2023-03-16T10:35:31.092Z,95071.41
2023-03-16T10:37:58.989Z,95070.72
2023-03-16T10:40:27.950Z,95069.78
2023-03-16T10:42:55.942Z,95072.88
2023-03-16T10:45:27.415Z,95074.50
2023-03-16T10:47:56.020Z,95070.84
2023-03-16T10:50:27.759Z,95056.50
2023-03-16T10:52:57.608Z,95046.53
2023-03-16T10:55:30.679Z,95046.53
2023-03-16T10:57:58.504Z,95039.91
2023-03-16T11:00:28.987Z,95045.47
2023-03-16T11:02:57.405Z,95043.34
2023-03-16T11:05:31.716Z,95038.09
2023-03-16T11:08:10.409Z,95038.06
2023-03-16T11:10:49.422Z,95039.19
2023-03-16T11:13:19.531Z,95026.75
2023-03-16T11:15:52.130Z,95021.72
2023-03-16T11:18:31.452Z,95031.94
2023-03-16T11:21:03.702Z,95021.88
2023-03-16T11:23:31.637Z,95022.41
2023-03-16T11:26:01.131Z,95022.28
2023-03-16T11:28:35.781Z,95005.78
2023-03-16T11:31:10.082Z,95011.34
2023-03-16T11:33:38.055Z,95003.31
2023-03-16T11:36:27.733Z,95001.44
2023-03-16T11:39:04.688Z,95006.53
2023-03-16T11:41:40.637Z,94999.13
2023-03-16T11:44:15.628Z,95001.94
2023-03-16T11:46:50.234Z,95010.34
2023-03-16T11:49:35.872Z,95000.03
2023-03-16T11:52:10.795Z,94999.38
2023-03-16T11:54:49.242Z,94994.09
2023-03-16T11:57:30.744Z,94983.34
2023-03-16T12:00:06.184Z,94984.56
2023-03-16T12:02:46.474Z,94971.41
2023-03-16T12:05:36.430Z,94977.09
2023-03-16T12:08:16.893Z,94965.19
2023-03-16T12:10:47.219Z,94963.03
2023-03-16T12:13:33.119Z,94968.41
2023-03-16T12:16:02.651Z,94968.66
2023-03-16T12:18:38.586Z,94959.13
2023-03-16T12:21:12.285Z,94956.34
2023-03-16T12:23:56.127Z,94963.72
2023-03-16T12:26:26.459Z,94961.19
2023-03-16T12:28:55.304Z,94950.88
2023-03-16T12:31:25.239Z,94955.59
2023-03-16T12:33:59.842Z,94956.13
2023-03-16T12:36:44.536Z,94946.19
2023-03-16T12:39:16.908Z,94952.34
2023-03-16T12:41:54.098Z,94949.53
2023-03-16T12:44:23.957Z,94944.56
2023-03-16T12:46:57.677Z,94942.00
2023-03-16T12:49:26.556Z,94943.06
2023-03-16T12:52:01.501Z,94941.44
2023-03-16T12:54:30.678Z,94946.00
2023-03-16T12:57:02.159Z,94935.34
2023-03-16T12:59:38.293Z,94934.03
2023-03-16T13:02:06.744Z,94927.78
2023-03-16T13:04:39.318Z,94927.03
2023-03-16T13:07:09.160Z,94931.97
2023-03-16T13:09:43.878Z,94936.66
2023-03-16T13:12:23.503Z,94939.13
2023-03-16T13:14:54.700Z,94933.06
2023-03-16T13:17:28.484Z,94929.69
2023-03-16T13:20:06.722Z,94926.78
2023-03-16T13:22:45.224Z,94923.88
2023-03-16T13:25:18.098Z,94928.50
2023-03-16T13:27:47.723Z,94932.56
2023-03-16T13:30:21.370Z,94932.50
2023-03-16T13:32:49.456Z,94925.69
2023-03-16T13:35:18.908Z,94926.59
2023-03-16T13:37:47.203Z,94926.78
2023-03-16T13:40:21.821Z,94925.31
2023-03-16T13:42:52.800Z,94924.44
2023-03-16T13:45:23.816Z,94914.41
2023-03-16T13:47:52.128Z,94917.56
2023-03-16T13:50:20.760Z,94915.88
2023-03-16T13:52:57.019Z,94919.56
2023-03-16T13:55:31.308Z,94915.69
2023-03-16T13:57:59.141Z,94915.19
2023-03-16T14:00:29.305Z,94911.56
2023-03-16T14:02:59.246Z,94903.63
2023-03-16T14:05:29.420Z,94899.53
2023-03-16T14:08:00.504Z,94897.81
2023-03-16T14:10:32.217Z,94905.97
2023-03-16T14:13:09.177Z,94899.34
2023-03-16T14:15:38.094Z,94902.50
2023-03-16T14:18:15.585Z,94898.78
2023-03-16T14:20:43.659Z,94897.94
2023-03-16T14:23:23.136Z,94894.81
2023-03-16T14:25:53.530Z,94897.66
2023-03-16T14:28:23.876Z,94889.25
2023-03-16T14:30:52.682Z,94894.94
2023-03-16T14:33:30.944Z,94898.22
2023-03-16T14:36:00.704Z,94900.59
2023-03-16T14:38:31.978Z,94887.78
2023-03-16T14:41:07.544Z,94890.75
2023-03-16T14:43:38.242Z,94880.72
2023-03-16T14:46:07.366Z,94880.66
2023-03-16T14:48:35.952Z,94887.50
2023-03-16T14:51:04.462Z,94876.94
2023-03-16T14:53:32.110Z,94880.28
2023-03-16T14:56:01.175Z,94887.41
2023-03-16T14:58:28.809Z,94885.25
2023-03-16T15:00:56.514Z,94884.66
2023-03-16T15:03:32.996Z,94898.25
2023-03-16T15:06:01.343Z,94876.59
2023-03-16T15:08:32.092Z,94874.66
2023-03-16T15:11:04.899Z,94878.03
2023-03-16T15:13:47.112Z,94881.03
2023-03-16T15:16:15.102Z,94882.66
2023-03-16T15:18:43.371Z,94880.19
2023-03-16T15:21:12.855Z,94878.72
2023-03-16T15:23:41.507Z,94872.94
2023-03-16T15:26:12.463Z,94868.50
2023-03-16T15:28:40.121Z,94870.06
2023-03-16T15:31:08.418Z,94871.34
2023-03-16T15:33:36.115Z,94866.69
2023-03-16T15:36:12.025Z,94873.34
2023-03-16T15:38:40.783Z,94868.41
2023-03-16T15:41:11.928Z,94879.41
2023-03-16T15:43:40.549Z,94866.88
2023-03-16T15:46:08.254Z,94860.94
2023-03-16T15:48:35.929Z,94866.88
2023-03-16T15:51:07.622Z,94862.41
2023-03-16T15:53:38.394Z,94857.97
2023-03-16T15:56:07.481Z,94854.31
2023-03-16T15:58:38.081Z,94853.66
2023-03-16T16:01:06.777Z,94843.25
2023-03-16T16:03:34.804Z,94843.00
2023-03-16T16:06:02.516Z,94839.28
2023-03-16T16:08:30.208Z,94835.75
2023-03-16T16:10:58.075Z,94841.69
2023-03-16T16:13:37.460Z,94841.84
2023-03-16T16:16:12.410Z,94848.13
2023-03-16T16:18:40.211Z,94841.91
2023-03-16T16:21:11.178Z,94849.16
2023-03-16T16:23:38.904Z,94845.72
2023-03-16T16:26:10.828Z,94851.56
2023-03-16T16:28:38.467Z,94846.03
2023-03-16T16:31:14.288Z,94844.41
2023-03-16T16:33:41.989Z,94845.94
2023-03-16T16:36:14.868Z,94856.69
2023-03-16T16:38:42.532Z,94858.34
2023-03-16T16:41:10.719Z,94852.81
2023-03-16T16:43:40.346Z,94852.81
2023-03-16T16:46:14.282Z,94853.53
2023-03-16T16:48:44.841Z,94858.34
2023-03-16T16:51:18.409Z,94859.78
2023-03-16T16:53:46.109Z,94864.28
2023-03-16T16:56:15.428Z,94858.28
2023-03-16T16:58:43.810Z,94856.28
2023-03-16T17:01:16.559Z,94858.31
2023-03-16T17:03:44.219Z,94857.72
2023-03-16T17:06:15.690Z,94859.75
2023-03-16T17:08:43.743Z,94857.59
2023-03-16T17:11:14.190Z,94864.72
2023-03-16T17:13:41.954Z,94864.25
2023-03-16T17:16:11.776Z,94875.13
2023-03-16T17:18:40.809Z,94870.28
2023-03-16T17:21:11.943Z,94882.44
2023-03-16T17:23:39.702Z,94876.66
2023-03-16T17:26:14.217Z,94877.72
2023-03-16T17:28:45.613Z,94877.25
2023-03-16T17:31:13.821Z,94868.88
2023-03-16T17:33:43.097Z,94877.72
2023-03-16T17:36:11.821Z,94876.31
2023-03-16T17:38:39.693Z,94874.72
2023-03-16T17:41:07.908Z,94878.41
2023-03-16T17:43:35.803Z,94880.50
2023-03-16T17:46:04.382Z,94884.25
2023-03-16T17:48:33.605Z,94888.59
2023-03-16T17:51:02.685Z,94875.34
2023-03-16T17:53:30.337Z,94879.25
2023-03-16T17:55:58.052Z,94886.03
2023-03-16T17:58:28.882Z,94880.47
2023-03-16T18:00:56.746Z,94887.28
2023-03-16T18:03:29.329Z,94888.97
2023-03-16T18:05:58.394Z,94889.16
2023-03-16T18:08:29.670Z,94885.00
2023-03-16T18:10:58.991Z,94877.28
2023-03-16T18:13:28.881Z,94882.53
2023-03-16T18:15:57.406Z,94875.50
2023-03-16T18:18:27.756Z,94881.13
2023-03-16T18:20:56.232Z,94885.41
2023-03-16T18:23:25.650Z,94873.84
2023-03-16T18:25:56.189Z,94868.41
2023-03-16T18:28:24.231Z,94871.72
2023-03-16T18:30:53.528Z,94868.03
2023-03-16T18:33:25.313Z,94877.44
2023-03-16T18:35:54.707Z,94870.59
2023-03-16T18:38:30.120Z,94876.53
2023-03-16T18:40:59.941Z,94876.22
2023-03-16T18:43:28.520Z,94866.72
2023-03-16T18:45:56.820Z,94872.13
2023-03-16T18:48:27.857Z,94870.94
2023-03-16T18:50:55.696Z,94871.81
2023-03-16T18:53:23.798Z,94868.47
2023-03-16T18:55:52.071Z,94880.16
2023-03-16T18:58:23.940Z,94875.59
2023-03-16T19:00:53.927Z,94871.66
2023-03-16T19:03:24.753Z,94875.88
2023-03-16T19:05:53.080Z,94881.88
2023-03-16T19:08:21.355Z,94875.31
2023-03-16T19:10:51.127Z,94872.81
2023-03-16T19:13:22.494Z,94871.03
2023-03-16T19:15:52.137Z,94872.50
2023-03-16T19:18:20.056Z,94873.00
2023-03-16T19:20:50.234Z,94868.44
2023-03-16T19:23:21.742Z,94864.47
2023-03-16T19:25:50.430Z,94861.81
2023-03-16T19:28:23.977Z,94867.59
2023-03-16T19:30:51.680Z,94859.97
2023-03-16T19:33:22.105Z,94861.88
2023-03-16T19:35:52.150Z,94864.41
2023-03-16T19:38:20.449Z,94863.38
2023-03-16T19:40:49.566Z,94855.44
2023-03-16T19:43:18.711Z,94854.84
2023-03-16T19:45:48.569Z,94861.69
2023-03-16T19:48:20.342Z,94859.38
2023-03-16T19:50:49.169Z,94854.19
2023-03-16T19:53:19.531Z,94864.00
2023-03-16T19:55:47.975Z,94864.50
2023-03-16T19:58:21.162Z,94853.69
2023-03-16T20:00:51.062Z,94851.59
2023-03-16T20:03:18.789Z,94852.22
2023-03-16T20:05:46.501Z,94846.66
2023-03-16T20:08:23.009Z,94849.13
2023-03-16T20:10:50.944Z,94844.97
2023-03-16T20:13:18.929Z,94843.78
2023-03-16T20:15:47.459Z,94837.31
2023-03-16T20:18:18.880Z,94836.06
2023-03-16T20:20:47.284Z,94838.38
2023-03-16T20:23:19.658Z,94839.25
2023-03-16T20:25:47.791Z,94835.94
2023-03-16T20:28:19.667Z,94835.31
2023-03-16T20:30:48.664Z,94836.38
2023-03-16T20:33:23.818Z,94833.06
2023-03-16T20:35:53.470Z,94834.53
2023-03-16T20:38:21.843Z,94834.53
2023-03-16T20:40:52.465Z,94826.88
2023-03-16T20:43:25.443Z,94834.22
2023-03-16T20:45:54.403Z,94826.34
2023-03-16T20:48:25.432Z,94819.91
2023-03-16T20:50:53.593Z,94822.81
2023-03-16T20:53:21.553Z,94824.28
2023-03-16T20:55:50.533Z,94829.75
2023-03-16T20:58:24.677Z,94827.28
2023-03-16T21:00:53.175Z,94827.50
2023-03-16T21:03:23.953Z,94830.22
2023-03-16T21:05:52.453Z,94825.91
2023-03-16T21:08:20.742Z,94823.66
2023-03-16T21:10:50.056Z,94818.06
2023-03-16T21:13:19.778Z,94824.31
2023-03-16T21:15:49.912Z,94829.91
2023-03-16T21:18:19.870Z,94825.38
2023-03-16T21:20:50.036Z,94822.53
2023-03-16T21:23:20.749Z,94825.63
2023-03-16T21:25:50.402Z,94822.94
2023-03-16T21:28:19.167Z,94819.00
2023-03-16T21:30:48.955Z,94826.28
2023-03-16T21:33:21.403Z,94821.31
2023-03-16T21:35:50.590Z,94812.44
2023-03-16T21:38:20.485Z,94804.38
2023-03-16T21:40:49.133Z,94801.47
2023-03-16T21:43:17.205Z,94797.50
2023-03-16T21:45:45.353Z,94803.31
2023-03-16T21:48:15.526Z,94799.41
2023-03-16T21:50:44.086Z,94805.00
2023-03-16T21:53:20.731Z,94795.69
2023-03-16T21:55:48.945Z,94792.34
2023-03-16T21:58:17.916Z,94791.75
2023-03-16T22:00:46.887Z,94796.31
2023-03-16T22:03:24.672Z,94791.34
2023-03-16T22:05:52.456Z,94800.44
2023-03-16T22:08:23.175Z,94794.84
2023-03-16T22:10:52.062Z,94801.91
2023-03-16T22:13:20.344Z,94801.72
2023-03-16T22:15:51.533Z,94800.44
2023-03-16T22:18:28.209Z,94794.66
2023-03-16T22:20:56.457Z,94782.25
2023-03-16T22:23:32.004Z,94785.34
2023-03-16T22:25:59.716Z,94792.38
2023-03-16T22:28:28.092Z,94789.47
2023-03-16T22:30:57.499Z,94787.19
2023-03-16T22:33:28.207Z,94785.16
2023-03-16T22:35:56.190Z,94785.53
2023-03-16T22:38:23.865Z,94779.75
2023-03-16T22:40:53.214Z,94783.88
2023-03-16T22:43:25.384Z,94785.72
2023-03-16T22:45:56.429Z,94783.22
2023-03-16T22:48:27.282Z,94788.16
2023-03-16T22:50:55.200Z,94786.06
2023-03-16T22:53:26.741Z,94789.56
2023-03-16T22:55:56.586Z,94792.66
2023-03-16T22:58:29.547Z,94790.81
2023-03-16T23:00:57.681Z,94788.31
2023-03-16T23:03:25.857Z,94781.25
2023-03-16T23:05:53.723Z,94782.47
2023-03-16T23:08:23.517Z,94769.63
2023-03-16T23:10:52.577Z,94769.41
2023-03-16T23:13:25.138Z,94775.19
2023-03-16T23:15:55.351Z,94769.81
2023-03-16T23:18:24.913Z,94772.09
2023-03-16T23:20:53.317Z,94761.56
2023-03-16T23:23:21.044Z,94759.28
2023-03-16T23:25:49.100Z,94760.06
2023-03-16T23:28:18.791Z,94754.25
2023-03-16T23:30:47.959Z,94751.53
2023-03-16T23:33:16.323Z,94753.78
2023-03-16T23:35:46.562Z,94755.66
2023-03-16T23:38:14.600Z,94747.94
2023-03-16T23:40:42.307Z,94749.84
2023-03-16T23:43:10.077Z,94752.53
2023-03-16T23:45:40.018Z,94748.41
2023-03-16T23:48:14.196Z,94752.97
2023-03-16T23:50:42.665Z,94744.88
2023-03-16T23:53:13.515Z,94746.28
2023-03-16T23:55:41.876Z,94739.66
2023-03-16T23:58:09.939Z,94738.00
